sensor_id;sensor_type;location;lat;lon;timestamp;P1;durP1;ratioP1;P2;durP2;ratioP2
2564;SDS011;1292;48.020;7.822;2023-04-24T05:46:43;3.20;;;2.10;;
2564;SDS011;1292;48.020;7.822;2023-04-24T05:49:10;2.27;;;1.83;;
2564;SDS011;1292;48.020;7.822;2023-04-24T05:51:37;2.50;;;2.13;;
2564;SDS011;1292;48.020;7.822;2023-04-24T05:54:04;2.23;;;1.73;;
2564;SDS011;1292;48.020;7.822;2023-04-24T05:56:31;5.53;;;2.20;;
2564;SDS011;1292;48.020;7.822;2023-04-24T05:58:58;2.20;;;2.00;;
2564;SDS011;1292;48.020;7.822;2023-04-24T06:01:24;1.83;;;1.73;;
2564;SDS011;1292;48.020;7.822;2023-04-24T06:03:53;3.97;;;2.40;;
2564;SDS011;1292;48.020;7.822;2023-04-24T06:06:20;1.97;;;1.87;;
2564;SDS011;1292;48.020;7.822;2023-04-24T06:08:46;4.90;;;2.53;;
2564;SDS011;1292;48.020;7.822;2023-04-24T06:11:13;2.60;;;2.40;;
2564;SDS011;1292;48.020;7.822;2023-04-24T06:13:40;2.20;;;2.00;;
2564;SDS011;1292;48.020;7.822;2023-04-24T06:16:07;3.77;;;2.93;;
2564;SDS011;1292;48.020;7.822;2023-04-24T06:18:34;4.53;;;2.60;;
2564;SDS011;1292;48.020;7.822;2023-04-24T06:21:02;1.83;;;1.73;;
2564;SDS011;1292;48.020;7.822;2023-04-24T06:23:30;3.00;;;2.70;;
2564;SDS011;1292;48.020;7.822;2023-04-24T06:25:57;3.20;;;2.97;;
2564;SDS011;1292;48.020;7.822;2023-04-24T06:28:24;4.63;;;4.20;;
2564;SDS011;1292;48.020;7.822;2023-04-24T06:30:51;4.20;;;3.80;;
2564;SDS011;1292;48.020;7.822;2023-04-24T06:33:18;4.13;;;3.60;;
2564;SDS011;1292;48.020;7.822;2023-04-24T06:35:45;4.90;;;4.00;;
2564;SDS011;1292;48.020;7.822;2023-04-24T06:38:13;8.00;;;4.63;;
2564;SDS011;1292;48.020;7.822;2023-04-24T06:40:41;5.40;;;3.20;;
2564;SDS011;1292;48.020;7.822;2023-04-24T06:43:07;3.47;;;3.17;;
2564;SDS011;1292;48.020;7.822;2023-04-24T06:45:34;4.53;;;3.47;;
2564;SDS011;1292;48.020;7.822;2023-04-24T06:48:01;2.73;;;2.50;;
2564;SDS011;1292;48.020;7.822;2023-04-24T06:50:28;10.00;;;6.60;;
2564;SDS011;1292;48.020;7.822;2023-04-24T06:52:55;3.40;;;2.73;;
2564;SDS011;1292;48.020;7.822;2023-04-24T06:55:23;6.30;;;4.30;;
2564;SDS011;1292;48.020;7.822;2023-04-24T06:57:50;11.80;;;4.57;;
2564;SDS011;1292;48.020;7.822;2023-04-24T07:00:17;7.23;;;5.00;;
2564;SDS011;1292;48.020;7.822;2023-04-24T07:02:44;8.00;;;4.13;;
2564;SDS011;1292;48.020;7.822;2023-04-24T07:05:11;3.47;;;2.97;;
2564;SDS011;1292;48.020;7.822;2023-04-24T07:07:38;4.23;;;3.40;;
2564;SDS011;1292;48.020;7.822;2023-04-24T07:10:05;6.60;;;3.40;;
2564;SDS011;1292;48.020;7.822;2023-04-24T07:12:34;4.27;;;3.43;;
2564;SDS011;1292;48.020;7.822;2023-04-24T07:15:02;5.80;;;3.57;;
2564;SDS011;1292;48.020;7.822;2023-04-24T07:17:30;6.27;;;3.83;;
2564;SDS011;1292;48.020;7.822;2023-04-24T07:19:56;3.77;;;3.33;;
2564;SDS011;1292;48.020;7.822;2023-04-24T07:22:23;5.23;;;3.30;;
2564;SDS011;1292;48.020;7.822;2023-04-24T07:24:50;15.13;;;7.80;;
2564;SDS011;1292;48.020;7.822;2023-04-24T07:27:17;4.03;;;2.90;;
2564;SDS011;1292;48.020;7.822;2023-04-24T07:29:45;7.07;;;6.13;;
2564;SDS011;1292;48.020;7.822;2023-04-24T07:32:12;11.83;;;6.10;;
2564;SDS011;1292;48.020;7.822;2023-04-24T07:34:39;5.10;;;3.30;;
2564;SDS011;1292;48.020;7.822;2023-04-24T07:37:06;4.47;;;4.10;;
2564;SDS011;1292;48.020;7.822;2023-04-24T07:39:32;3.07;;;2.63;;
2564;SDS011;1292;48.020;7.822;2023-04-24T07:41:59;2.87;;;2.63;;
2564;SDS011;1292;48.020;7.822;2023-04-24T07:44:27;2.47;;;2.03;;
2564;SDS011;1292;48.020;7.822;2023-04-24T07:46:55;3.93;;;2.23;;
2564;SDS011;1292;48.020;7.822;2023-04-24T07:49:22;3.80;;;2.70;;
2564;SDS011;1292;48.020;7.822;2023-04-24T07:51:49;3.80;;;1.83;;
2564;SDS011;1292;48.020;7.822;2023-04-24T07:54:16;2.10;;;1.80;;
2564;SDS011;1292;48.020;7.822;2023-04-24T07:56:43;2.30;;;2.07;;
2564;SDS011;1292;48.020;7.822;2023-04-24T07:59:10;2.20;;;2.00;;
2564;SDS011;1292;48.020;7.822;2023-04-24T08:01:37;2.40;;;2.13;;
2564;SDS011;1292;48.020;7.822;2023-04-24T08:04:05;4.40;;;2.63;;
2564;SDS011;1292;48.020;7.822;2023-04-24T08:06:32;7.40;;;2.80;;
2564;SDS011;1292;48.020;7.822;2023-04-24T08:08:59;4.57;;;2.70;;
2564;SDS011;1292;48.020;7.822;2023-04-24T08:11:26;3.47;;;2.23;;
2564;SDS011;1292;48.020;7.822;2023-04-24T08:13:53;2.50;;;2.30;;
2564;SDS011;1292;48.020;7.822;2023-04-24T08:16:20;4.63;;;2.87;;
2564;SDS011;1292;48.020;7.822;2023-04-24T08:18:48;2.67;;;2.47;;
2564;SDS011;1292;48.020;7.822;2023-04-24T08:21:17;3.50;;;2.80;;
2564;SDS011;1292;48.020;7.822;2023-04-24T08:23:44;4.20;;;3.80;;
2564;SDS011;1292;48.020;7.822;2023-04-24T08:26:11;4.20;;;2.73;;
2564;SDS011;1292;48.020;7.822;2023-04-24T08:28:38;3.57;;;3.07;;
2564;SDS011;1292;48.020;7.822;2023-04-24T08:31:05;2.80;;;1.63;;
2564;SDS011;1292;48.020;7.822;2023-04-24T08:33:32;4.50;;;2.20;;
2564;SDS011;1292;48.020;7.822;2023-04-24T08:35:59;2.27;;;1.70;;
2564;SDS011;1292;48.020;7.822;2023-04-24T08:38:28;2.67;;;2.00;;
2564;SDS011;1292;48.020;7.822;2023-04-24T08:40:55;1.63;;;1.53;;
2564;SDS011;1292;48.020;7.822;2023-04-24T08:43:25;2.00;;;1.90;;
2564;SDS011;1292;48.020;7.822;2023-04-24T08:45:52;3.00;;;1.87;;
2564;SDS011;1292;48.020;7.822;2023-04-24T08:48:22;2.10;;;1.90;;
2564;SDS011;1292;48.020;7.822;2023-04-24T08:50:49;5.20;;;2.43;;
2564;SDS011;1292;48.020;7.822;2023-04-24T08:53:17;4.00;;;1.77;;
2564;SDS011;1292;48.020;7.822;2023-04-24T08:55:47;1.30;;;1.20;;
2564;SDS011;1292;48.020;7.822;2023-04-24T08:58:15;2.20;;;1.50;;
2564;SDS011;1292;48.020;7.822;2023-04-24T09:00:43;8.87;;;2.27;;
2564;SDS011;1292;48.020;7.822;2023-04-24T09:03:12;1.50;;;1.40;;
2564;SDS011;1292;48.020;7.822;2023-04-24T09:05:40;2.40;;;1.50;;
2564;SDS011;1292;48.020;7.822;2023-04-24T09:08:10;2.00;;;1.80;;
2564;SDS011;1292;48.020;7.822;2023-04-24T09:10:40;4.90;;;1.90;;
2564;SDS011;1292;48.020;7.822;2023-04-24T09:13:08;2.53;;;1.60;;
2564;SDS011;1292;48.020;7.822;2023-04-24T09:15:36;1.80;;;1.43;;
2564;SDS011;1292;48.020;7.822;2023-04-24T09:18:03;2.90;;;1.60;;
2564;SDS011;1292;48.020;7.822;2023-04-24T09:20:31;2.17;;;1.97;;
2564;SDS011;1292;48.020;7.822;2023-04-24T09:23:01;2.90;;;1.70;;
2564;SDS011;1292;48.020;7.822;2023-04-24T09:25:30;5.60;;;1.40;;
2564;SDS011;1292;48.020;7.822;2023-04-24T09:28:00;2.10;;;1.50;;
2564;SDS011;1292;48.020;7.822;2023-04-24T09:30:29;4.00;;;2.00;;
2564;SDS011;1292;48.020;7.822;2023-04-24T09:35:40;2.77;;;1.50;;
2564;SDS011;1292;48.020;7.822;2023-04-24T09:38:08;1.50;;;1.40;;
2564;SDS011;1292;48.020;7.822;2023-04-24T09:40:35;1.83;;;1.37;;
2564;SDS011;1292;48.020;7.822;2023-04-24T09:43:01;2.83;;;1.73;;
2564;SDS011;1292;48.020;7.822;2023-04-24T09:45:31;4.03;;;1.73;;
2564;SDS011;1292;48.020;7.822;2023-04-24T09:48:03;1.37;;;1.27;;
2564;SDS011;1292;48.020;7.822;2023-04-24T09:50:31;1.67;;;1.50;;
2564;SDS011;1292;48.020;7.822;2023-04-24T09:53:01;1.67;;;1.57;;
2564;SDS011;1292;48.020;7.822;2023-04-24T09:55:29;1.80;;;1.23;;
2564;SDS011;1292;48.020;7.822;2023-04-24T09:57:57;3.57;;;1.40;;
2564;SDS011;1292;48.020;7.822;2023-04-24T10:00:25;1.73;;;1.20;;
2564;SDS011;1292;48.020;7.822;2023-04-24T10:02:58;3.13;;;1.27;;
2564;SDS011;1292;48.020;7.822;2023-04-24T10:05:27;2.20;;;1.37;;
2564;SDS011;1292;48.020;7.822;2023-04-24T10:08:00;1.70;;;1.03;;
2564;SDS011;1292;48.020;7.822;2023-04-24T10:10:28;1.17;;;1.00;;
2564;SDS011;1292;48.020;7.822;2023-04-24T10:12:55;0.77;;;0.63;;
2564;SDS011;1292;48.020;7.822;2023-04-24T10:15:22;1.17;;;0.80;;
2564;SDS011;1292;48.020;7.822;2023-04-24T10:17:50;1.03;;;0.90;;
2564;SDS011;1292;48.020;7.822;2023-04-24T10:20:23;1.17;;;1.07;;
2564;SDS011;1292;48.020;7.822;2023-04-24T10:22:51;1.50;;;1.17;;
2564;SDS011;1292;48.020;7.822;2023-04-24T10:25:19;0.70;;;0.70;;
2564;SDS011;1292;48.020;7.822;2023-04-24T10:27:47;1.20;;;1.00;;
2564;SDS011;1292;48.020;7.822;2023-04-24T10:30:15;1.33;;;1.07;;
2564;SDS011;1292;48.020;7.822;2023-04-24T10:32:42;1.80;;;1.33;;
2564;SDS011;1292;48.020;7.822;2023-04-24T10:35:10;1.80;;;1.23;;
2564;SDS011;1292;48.020;7.822;2023-04-24T10:37:41;3.80;;;1.10;;
2564;SDS011;1292;48.020;7.822;2023-04-24T10:40:11;1.00;;;0.90;;
2564;SDS011;1292;48.020;7.822;2023-04-24T10:42:42;1.73;;;0.90;;
2564;SDS011;1292;48.020;7.822;2023-04-24T10:45:16;3.30;;;1.60;;
2564;SDS011;1292;48.020;7.822;2023-04-24T10:47:50;1.73;;;1.20;;
2564;SDS011;1292;48.020;7.822;2023-04-24T10:50:18;1.10;;;0.80;;
2564;SDS011;1292;48.020;7.822;2023-04-24T10:52:46;1.40;;;1.07;;
2564;SDS011;1292;48.020;7.822;2023-04-24T10:55:16;2.00;;;1.40;;
2564;SDS011;1292;48.020;7.822;2023-04-24T10:58:05;3.97;;;1.27;;
2564;SDS011;1292;48.020;7.822;2023-04-24T11:00:31;2.70;;;1.00;;
2564;SDS011;1292;48.020;7.822;2023-04-24T11:02:58;1.17;;;1.00;;
2564;SDS011;1292;48.020;7.822;2023-04-24T11:08:21;1.30;;;1.03;;
2564;SDS011;1292;48.020;7.822;2023-04-24T11:10:54;2.70;;;1.60;;
2564;SDS011;1292;48.020;7.822;2023-04-24T11:13:23;1.90;;;1.60;;
2564;SDS011;1292;48.020;7.822;2023-04-24T11:18:38;1.50;;;1.40;;
2564;SDS011;1292;48.020;7.822;2023-04-24T11:21:10;3.50;;;2.70;;
2564;SDS011;1292;48.020;7.822;2023-04-24T11:23:39;1.43;;;1.33;;
2564;SDS011;1292;48.020;7.822;2023-04-24T11:26:10;3.57;;;2.90;;
2564;SDS011;1292;48.020;7.822;2023-04-24T11:28:40;1.87;;;1.77;;
2564;SDS011;1292;48.020;7.822;2023-04-24T11:34:06;3.80;;;2.83;;
2564;SDS011;1292;48.020;7.822;2023-04-24T11:36:34;2.33;;;1.90;;
2564;SDS011;1292;48.020;7.822;2023-04-24T11:39:03;1.97;;;1.87;;
2564;SDS011;1292;48.020;7.822;2023-04-24T11:41:30;1.40;;;1.30;;
2564;SDS011;1292;48.020;7.822;2023-04-24T11:43:58;3.37;;;1.90;;
2564;SDS011;1292;48.020;7.822;2023-04-24T11:46:27;1.50;;;1.40;;
2564;SDS011;1292;48.020;7.822;2023-04-24T11:48:54;2.93;;;1.50;;
2564;SDS011;1292;48.020;7.822;2023-04-24T11:51:22;1.33;;;1.20;;
2564;SDS011;1292;48.020;7.822;2023-04-24T11:53:49;6.70;;;2.80;;
2564;SDS011;1292;48.020;7.822;2023-04-24T11:56:18;1.70;;;1.20;;
2564;SDS011;1292;48.020;7.822;2023-04-24T11:58:45;1.40;;;1.30;;
2564;SDS011;1292;48.020;7.822;2023-04-24T12:01:13;1.90;;;1.70;;
2564;SDS011;1292;48.020;7.822;2023-04-24T12:03:40;2.27;;;1.53;;
2564;SDS011;1292;48.020;7.822;2023-04-24T12:06:09;1.70;;;1.60;;
2564;SDS011;1292;48.020;7.822;2023-04-24T12:08:37;2.30;;;1.60;;
2564;SDS011;1292;48.020;7.822;2023-04-24T12:11:04;1.80;;;1.70;;
2564;SDS011;1292;48.020;7.822;2023-04-24T12:13:34;2.63;;;1.97;;
2564;SDS011;1292;48.020;7.822;2023-04-24T12:16:02;4.17;;;2.03;;
2564;SDS011;1292;48.020;7.822;2023-04-24T12:18:30;5.87;;;2.53;;
2564;SDS011;1292;48.020;7.822;2023-04-24T12:23:45;2.20;;;1.47;;
2564;SDS011;1292;48.020;7.822;2023-04-24T12:26:15;2.00;;;1.50;;
2564;SDS011;1292;48.020;7.822;2023-04-24T12:28:46;1.50;;;1.00;;
2564;SDS011;1292;48.020;7.822;2023-04-24T12:31:14;1.43;;;1.07;;
2564;SDS011;1292;48.020;7.822;2023-04-24T12:33:42;1.23;;;1.13;;
2564;SDS011;1292;48.020;7.822;2023-04-24T12:36:09;1.07;;;0.97;;
2564;SDS011;1292;48.020;7.822;2023-04-24T12:38:38;0.87;;;0.87;;
2564;SDS011;1292;48.020;7.822;2023-04-24T12:41:06;1.73;;;1.43;;
2564;SDS011;1292;48.020;7.822;2023-04-24T12:43:34;1.73;;;1.50;;
2564;SDS011;1292;48.020;7.822;2023-04-24T12:46:02;1.70;;;1.60;;
2564;SDS011;1292;48.020;7.822;2023-04-24T12:48:30;1.57;;;1.20;;
2564;SDS011;1292;48.020;7.822;2023-04-24T12:50:57;1.47;;;1.33;;
2564;SDS011;1292;48.020;7.822;2023-04-24T12:53:26;2.00;;;1.50;;
2564;SDS011;1292;48.020;7.822;2023-04-24T12:55:54;3.30;;;1.80;;
2564;SDS011;1292;48.020;7.822;2023-04-24T12:58:21;1.53;;;1.30;;
2564;SDS011;1292;48.020;7.822;2023-04-24T13:00:48;1.50;;;1.40;;
2564;SDS011;1292;48.020;7.822;2023-04-24T13:03:16;2.70;;;1.20;;
2564;SDS011;1292;48.020;7.822;2023-04-24T13:05:43;3.10;;;1.17;;
2564;SDS011;1292;48.020;7.822;2023-04-24T13:08:10;1.57;;;1.30;;
2564;SDS011;1292;48.020;7.822;2023-04-24T13:10:38;2.53;;;1.60;;
2564;SDS011;1292;48.020;7.822;2023-04-24T13:13:05;1.33;;;1.23;;
2564;SDS011;1292;48.020;7.822;2023-04-24T13:15:32;5.37;;;1.57;;
2564;SDS011;1292;48.020;7.822;2023-04-24T13:17:59;1.40;;;1.30;;
2564;SDS011;1292;48.020;7.822;2023-04-24T13:20:27;3.70;;;2.23;;
2564;SDS011;1292;48.020;7.822;2023-04-24T13:22:54;1.40;;;1.13;;
2564;SDS011;1292;48.020;7.822;2023-04-24T13:25:21;3.67;;;1.90;;
2564;SDS011;1292;48.020;7.822;2023-04-24T13:27:50;2.23;;;1.70;;
2564;SDS011;1292;48.020;7.822;2023-04-24T13:30:17;2.53;;;1.40;;
2564;SDS011;1292;48.020;7.822;2023-04-24T13:32:44;3.17;;;2.40;;
2564;SDS011;1292;48.020;7.822;2023-04-24T13:35:10;1.23;;;1.00;;
2564;SDS011;1292;48.020;7.822;2023-04-24T13:37:39;2.20;;;1.30;;
2564;SDS011;1292;48.020;7.822;2023-04-24T13:40:06;1.57;;;1.10;;
2564;SDS011;1292;48.020;7.822;2023-04-24T13:42:34;1.90;;;1.27;;
2564;SDS011;1292;48.020;7.822;2023-04-24T13:45:01;4.03;;;2.10;;
2564;SDS011;1292;48.020;7.822;2023-04-24T13:47:28;5.30;;;1.63;;
2564;SDS011;1292;48.020;7.822;2023-04-24T13:49:55;3.23;;;1.70;;
2564;SDS011;1292;48.020;7.822;2023-04-24T13:52:22;4.00;;;1.60;;
2564;SDS011;1292;48.020;7.822;2023-04-24T13:54:50;2.17;;;1.97;;
2564;SDS011;1292;48.020;7.822;2023-04-24T13:57:17;6.57;;;3.00;;
2564;SDS011;1292;48.020;7.822;2023-04-24T13:59:43;1.90;;;1.80;;
2564;SDS011;1292;48.020;7.822;2023-04-24T14:02:11;1.93;;;1.63;;
2564;SDS011;1292;48.020;7.822;2023-04-24T14:04:37;3.40;;;1.90;;
2564;SDS011;1292;48.020;7.822;2023-04-24T14:07:04;3.83;;;2.40;;
2564;SDS011;1292;48.020;7.822;2023-04-24T14:09:32;2.80;;;1.67;;
2564;SDS011;1292;48.020;7.822;2023-04-24T14:12:01;2.73;;;1.93;;
2564;SDS011;1292;48.020;7.822;2023-04-24T14:14:28;3.57;;;1.90;;
2564;SDS011;1292;48.020;7.822;2023-04-24T14:16:55;2.10;;;1.60;;
2564;SDS011;1292;48.020;7.822;2023-04-24T14:19:23;2.87;;;1.90;;
2564;SDS011;1292;48.020;7.822;2023-04-24T14:21:50;1.93;;;1.70;;
2564;SDS011;1292;48.020;7.822;2023-04-24T14:24:17;2.23;;;1.87;;
2564;SDS011;1292;48.020;7.822;2023-04-24T14:26:43;1.90;;;1.80;;
2564;SDS011;1292;48.020;7.822;2023-04-24T14:29:12;1.83;;;1.73;;
2564;SDS011;1292;48.020;7.822;2023-04-24T14:31:38;2.80;;;1.70;;
2564;SDS011;1292;48.020;7.822;2023-04-24T14:34:05;4.50;;;2.67;;
2564;SDS011;1292;48.020;7.822;2023-04-24T14:36:32;5.03;;;3.17;;
2564;SDS011;1292;48.020;7.822;2023-04-24T14:38:59;4.87;;;2.40;;
2564;SDS011;1292;48.020;7.822;2023-04-24T14:41:28;3.03;;;2.60;;
2564;SDS011;1292;48.020;7.822;2023-04-24T14:43:55;1.93;;;1.73;;
2564;SDS011;1292;48.020;7.822;2023-04-24T14:46:23;5.37;;;1.70;;
2564;SDS011;1292;48.020;7.822;2023-04-24T14:48:50;2.83;;;2.03;;
2564;SDS011;1292;48.020;7.822;2023-04-24T14:51:17;1.93;;;1.73;;
2564;SDS011;1292;48.020;7.822;2023-04-24T14:53:43;10.50;;;2.70;;
2564;SDS011;1292;48.020;7.822;2023-04-24T14:56:11;6.87;;;5.33;;
2564;SDS011;1292;48.020;7.822;2023-04-24T14:58:38;6.30;;;2.47;;
2564;SDS011;1292;48.020;7.822;2023-04-24T15:01:05;4.17;;;1.90;;
2564;SDS011;1292;48.020;7.822;2023-04-24T15:03:33;3.60;;;1.90;;
2564;SDS011;1292;48.020;7.822;2023-04-24T15:06:00;2.70;;;2.20;;
2564;SDS011;1292;48.020;7.822;2023-04-24T15:08:27;2.10;;;2.00;;
2564;SDS011;1292;48.020;7.822;2023-04-24T15:10:54;2.17;;;2.03;;
2564;SDS011;1292;48.020;7.822;2023-04-24T15:13:21;3.17;;;2.73;;
2564;SDS011;1292;48.020;7.822;2023-04-24T15:15:48;3.37;;;2.77;;
2564;SDS011;1292;48.020;7.822;2023-04-24T15:18:14;3.53;;;2.73;;
2564;SDS011;1292;48.020;7.822;2023-04-24T15:20:42;4.53;;;2.83;;
2564;SDS011;1292;48.020;7.822;2023-04-24T15:23:09;2.83;;;2.40;;
2564;SDS011;1292;48.020;7.822;2023-04-24T15:25:37;3.20;;;2.27;;
2564;SDS011;1292;48.020;7.822;2023-04-24T15:28:04;4.43;;;2.23;;
2564;SDS011;1292;48.020;7.822;2023-04-24T15:30:31;2.27;;;1.53;;
2564;SDS011;1292;48.020;7.822;2023-04-24T15:32:57;2.03;;;1.67;;
2564;SDS011;1292;48.020;7.822;2023-04-24T15:35:25;2.37;;;2.17;;
2564;SDS011;1292;48.020;7.822;2023-04-24T15:37:54;3.60;;;2.40;;
2564;SDS011;1292;48.020;7.822;2023-04-24T15:40:21;2.67;;;1.90;;
2564;SDS011;1292;48.020;7.822;2023-04-24T15:42:48;2.07;;;1.87;;
2564;SDS011;1292;48.020;7.822;2023-04-24T15:45:15;2.17;;;1.70;;
2564;SDS011;1292;48.020;7.822;2023-04-24T15:47:43;3.40;;;3.10;;
2564;SDS011;1292;48.020;7.822;2023-04-24T15:50:11;3.10;;;2.30;;
2564;SDS011;1292;48.020;7.822;2023-04-24T15:52:39;2.03;;;1.80;;
2564;SDS011;1292;48.020;7.822;2023-04-24T15:55:07;2.70;;;1.97;;
2564;SDS011;1292;48.020;7.822;2023-04-24T15:57:35;2.37;;;2.17;;
2564;SDS011;1292;48.020;7.822;2023-04-24T16:00:02;2.03;;;1.60;;
2564;SDS011;1292;48.020;7.822;2023-04-24T16:02:31;1.93;;;1.83;;
2564;SDS011;1292;48.020;7.822;2023-04-24T16:04:58;2.33;;;2.17;;
2564;SDS011;1292;48.020;7.822;2023-04-24T16:07:25;2.77;;;2.57;;
2564;SDS011;1292;48.020;7.822;2023-04-24T16:09:51;4.47;;;3.13;;
2564;SDS011;1292;48.020;7.822;2023-04-24T16:12:19;2.20;;;2.00;;
2564;SDS011;1292;48.020;7.822;2023-04-24T16:14:46;2.53;;;2.33;;
2564;SDS011;1292;48.020;7.822;2023-04-24T16:17:13;1.97;;;1.63;;
2564;SDS011;1292;48.020;7.822;2023-04-24T16:19:40;2.80;;;2.10;;
2564;SDS011;1292;48.020;7.822;2023-04-24T16:22:07;5.47;;;4.27;;
2564;SDS011;1292;48.020;7.822;2023-04-24T16:24:33;2.60;;;2.20;;
2564;SDS011;1292;48.020;7.822;2023-04-24T16:27:00;2.53;;;2.33;;
2564;SDS011;1292;48.020;7.822;2023-04-24T16:29:29;2.77;;;2.20;;
2564;SDS011;1292;48.020;7.822;2023-04-24T16:31:56;7.00;;;3.07;;
2564;SDS011;1292;48.020;7.822;2023-04-24T16:34:22;4.20;;;2.53;;
2564;SDS011;1292;48.020;7.822;2023-04-24T16:36:49;2.10;;;1.90;;
2564;SDS011;1292;48.020;7.822;2023-04-24T16:39:16;3.60;;;2.67;;
2564;SDS011;1292;48.020;7.822;2023-04-24T16:41:43;2.80;;;2.43;;
2564;SDS011;1292;48.020;7.822;2023-04-24T16:44:10;2.10;;;2.00;;
2564;SDS011;1292;48.020;7.822;2023-04-24T16:46:39;2.20;;;1.90;;
2564;SDS011;1292;48.020;7.822;2023-04-24T16:49:05;4.87;;;3.40;;
2564;SDS011;1292;48.020;7.822;2023-04-24T16:51:32;3.23;;;2.93;;
2564;SDS011;1292;48.020;7.822;2023-04-24T16:54:00;2.97;;;2.60;;
2564;SDS011;1292;48.020;7.822;2023-04-24T16:56:26;4.30;;;2.80;;
2564;SDS011;1292;48.020;7.822;2023-04-24T16:58:53;2.33;;;2.00;;
2564;SDS011;1292;48.020;7.822;2023-04-24T17:01:20;2.77;;;2.40;;
2564;SDS011;1292;48.020;7.822;2023-04-24T17:03:48;8.67;;;3.47;;
2564;SDS011;1292;48.020;7.822;2023-04-24T17:06:15;2.30;;;2.10;;
2564;SDS011;1292;48.020;7.822;2023-04-24T17:08:42;5.57;;;2.27;;
2564;SDS011;1292;48.020;7.822;2023-04-24T17:11:09;4.40;;;3.00;;
2564;SDS011;1292;48.020;7.822;2023-04-24T17:13:35;6.70;;;2.83;;
2564;SDS011;1292;48.020;7.822;2023-04-24T17:16:02;5.53;;;2.70;;
2564;SDS011;1292;48.020;7.822;2023-04-24T17:18:29;3.13;;;2.60;;
2564;SDS011;1292;48.020;7.822;2023-04-24T17:20:57;5.37;;;3.40;;
2564;SDS011;1292;48.020;7.822;2023-04-24T17:23:24;2.57;;;2.40;;
2564;SDS011;1292;48.020;7.822;2023-04-24T17:25:51;4.10;;;3.00;;
2564;SDS011;1292;48.020;7.822;2023-04-24T17:28:22;3.93;;;3.30;;
2564;SDS011;1292;48.020;7.822;2023-04-24T17:30:50;5.33;;;2.80;;
2564;SDS011;1292;48.020;7.822;2023-04-24T17:33:19;3.23;;;2.93;;
2564;SDS011;1292;48.020;7.822;2023-04-24T17:35:46;5.80;;;3.70;;
2564;SDS011;1292;48.020;7.822;2023-04-24T17:38:15;2.63;;;2.40;;
2564;SDS011;1292;48.020;7.822;2023-04-24T17:40:42;3.80;;;3.30;;
2564;SDS011;1292;48.020;7.822;2023-04-24T17:43:10;2.87;;;2.57;;
2564;SDS011;1292;48.020;7.822;2023-04-24T17:45:37;7.03;;;2.80;;
2564;SDS011;1292;48.020;7.822;2023-04-24T17:48:04;2.53;;;2.33;;
2564;SDS011;1292;48.020;7.822;2023-04-24T17:50:31;6.20;;;2.17;;
2564;SDS011;1292;48.020;7.822;2023-04-24T17:52:58;3.17;;;2.10;;
2564;SDS011;1292;48.020;7.822;2023-04-24T17:55:26;6.70;;;2.53;;
2564;SDS011;1292;48.020;7.822;2023-04-24T17:57:53;2.27;;;2.07;;
2564;SDS011;1292;48.020;7.822;2023-04-24T18:00:20;2.77;;;2.20;;
2564;SDS011;1292;48.020;7.822;2023-04-24T18:02:47;3.40;;;2.43;;
2564;SDS011;1292;48.020;7.822;2023-04-24T18:05:15;2.50;;;2.30;;
2564;SDS011;1292;48.020;7.822;2023-04-24T18:07:41;2.67;;;2.47;;
2564;SDS011;1292;48.020;7.822;2023-04-24T18:10:08;2.60;;;2.40;;
2564;SDS011;1292;48.020;7.822;2023-04-24T18:12:37;3.10;;;2.30;;
2564;SDS011;1292;48.020;7.822;2023-04-24T18:15:04;3.63;;;2.20;;
2564;SDS011;1292;48.020;7.822;2023-04-24T18:17:32;2.60;;;2.40;;
2564;SDS011;1292;48.020;7.822;2023-04-24T18:19:59;8.63;;;2.97;;
2564;SDS011;1292;48.020;7.822;2023-04-24T18:22:25;2.97;;;2.70;;
2564;SDS011;1292;48.020;7.822;2023-04-24T18:24:52;2.77;;;2.50;;
2564;SDS011;1292;48.020;7.822;2023-04-24T18:27:19;3.07;;;2.67;;
2564;SDS011;1292;48.020;7.822;2023-04-24T18:29:47;2.60;;;2.23;;
2564;SDS011;1292;48.020;7.822;2023-04-24T18:32:14;2.77;;;2.03;;
2564;SDS011;1292;48.020;7.822;2023-04-24T18:34:41;3.20;;;2.57;;
2564;SDS011;1292;48.020;7.822;2023-04-24T18:37:08;3.33;;;2.87;;
2564;SDS011;1292;48.020;7.822;2023-04-24T18:39:35;2.33;;;2.03;;
2564;SDS011;1292;48.020;7.822;2023-04-24T18:42:01;4.00;;;2.47;;
2564;SDS011;1292;48.020;7.822;2023-04-24T18:44:28;3.63;;;2.37;;
2564;SDS011;1292;48.020;7.822;2023-04-24T18:46:56;7.37;;;3.50;;
2564;SDS011;1292;48.020;7.822;2023-04-24T18:49:23;5.10;;;3.10;;
2564;SDS011;1292;48.020;7.822;2023-04-24T18:51:51;5.80;;;3.07;;
2564;SDS011;1292;48.020;7.822;2023-04-24T18:54:18;6.07;;;4.13;;
2564;SDS011;1292;48.020;7.822;2023-04-24T18:56:45;4.83;;;4.00;;
2564;SDS011;1292;48.020;7.822;2023-04-24T18:59:12;3.43;;;2.27;;
2564;SDS011;1292;48.020;7.822;2023-04-24T19:01:38;3.50;;;2.60;;
2564;SDS011;1292;48.020;7.822;2023-04-24T19:04:07;5.90;;;2.90;;
2564;SDS011;1292;48.020;7.822;2023-04-24T19:06:33;3.30;;;3.00;;
2564;SDS011;1292;48.020;7.822;2023-04-24T19:09:00;4.40;;;3.30;;
2564;SDS011;1292;48.020;7.822;2023-04-24T19:11:27;7.60;;;3.63;;
2564;SDS011;1292;48.020;7.822;2023-04-24T19:13:54;4.10;;;2.70;;
2564;SDS011;1292;48.020;7.822;2023-04-24T19:16:24;2.90;;;2.60;;
2564;SDS011;1292;48.020;7.822;2023-04-24T19:18:51;3.40;;;3.00;;
2564;SDS011;1292;48.020;7.822;2023-04-24T19:21:19;4.97;;;2.80;;
2564;SDS011;1292;48.020;7.822;2023-04-24T19:23:47;5.30;;;2.60;;
2564;SDS011;1292;48.020;7.822;2023-04-24T19:26:14;4.37;;;2.10;;
2564;SDS011;1292;48.020;7.822;2023-04-24T19:28:41;3.03;;;2.20;;
2564;SDS011;1292;48.020;7.822;2023-04-24T19:31:08;3.70;;;2.90;;
2564;SDS011;1292;48.020;7.822;2023-04-24T19:33:34;4.20;;;2.53;;
2564;SDS011;1292;48.020;7.822;2023-04-24T19:36:01;3.70;;;2.50;;
2564;SDS011;1292;48.020;7.822;2023-04-24T19:38:31;1.93;;;1.83;;
2564;SDS011;1292;48.020;7.822;2023-04-24T19:40:58;2.50;;;2.30;;
2564;SDS011;1292;48.020;7.822;2023-04-24T19:43:24;3.63;;;2.20;;
2564;SDS011;1292;48.020;7.822;2023-04-24T19:45:51;3.43;;;2.87;;
2564;SDS011;1292;48.020;7.822;2023-04-24T19:48:18;2.93;;;2.67;;
2564;SDS011;1292;48.020;7.822;2023-04-24T19:50:45;2.37;;;2.17;;
2564;SDS011;1292;48.020;7.822;2023-04-24T19:53:12;3.10;;;2.60;;
2564;SDS011;1292;48.020;7.822;2023-04-24T19:55:40;3.13;;;2.70;;
2564;SDS011;1292;48.020;7.822;2023-04-24T19:58:07;3.23;;;2.37;;
2564;SDS011;1292;48.020;7.822;2023-04-24T20:00:33;3.43;;;2.67;;
2564;SDS011;1292;48.020;7.822;2023-04-24T20:03:00;2.57;;;2.37;;
2564;SDS011;1292;48.020;7.822;2023-04-24T20:05:27;9.50;;;2.33;;
2564;SDS011;1292;48.020;7.822;2023-04-24T20:07:54;3.83;;;2.17;;
2564;SDS011;1292;48.020;7.822;2023-04-24T20:10:21;2.80;;;2.60;;
2564;SDS011;1292;48.020;7.822;2023-04-24T20:12:49;1.90;;;1.80;;
2564;SDS011;1292;48.020;7.822;2023-04-24T20:15:16;6.20;;;2.37;;
2564;SDS011;1292;48.020;7.822;2023-04-24T20:17:43;4.67;;;2.17;;
2564;SDS011;1292;48.020;7.822;2023-04-24T20:20:10;2.67;;;2.47;;
2564;SDS011;1292;48.020;7.822;2023-04-24T20:22:37;2.30;;;2.10;;
2564;SDS011;1292;48.020;7.822;2023-04-24T20:25:05;4.63;;;2.67;;
2564;SDS011;1292;48.020;7.822;2023-04-24T20:27:33;3.20;;;2.70;;
2564;SDS011;1292;48.020;7.822;2023-04-24T20:30:02;3.27;;;2.73;;
2564;SDS011;1292;48.020;7.822;2023-04-24T20:32:30;3.37;;;2.37;;
2564;SDS011;1292;48.020;7.822;2023-04-24T20:34:57;3.50;;;2.37;;
2564;SDS011;1292;48.020;7.822;2023-04-24T20:37:24;3.73;;;2.27;;
2564;SDS011;1292;48.020;7.822;2023-04-24T20:39:51;2.93;;;2.63;;
2564;SDS011;1292;48.020;7.822;2023-04-24T20:42:17;3.83;;;3.43;;
2564;SDS011;1292;48.020;7.822;2023-04-24T20:44:44;4.03;;;3.30;;
2564;SDS011;1292;48.020;7.822;2023-04-24T20:47:13;4.47;;;3.60;;
2564;SDS011;1292;48.020;7.822;2023-04-24T20:49:39;5.47;;;2.33;;
2564;SDS011;1292;48.020;7.822;2023-04-24T20:52:06;4.03;;;3.13;;
2564;SDS011;1292;48.020;7.822;2023-04-24T20:54:33;4.00;;;2.20;;
2564;SDS011;1292;48.020;7.822;2023-04-24T20:57:00;2.90;;;2.70;;
2564;SDS011;1292;48.020;7.822;2023-04-24T20:59:27;6.60;;;2.80;;
